Gaspar Campos, Argentina
Current Conditions -  °F | °C
As of 10:00 AM on Friday 24 Oct 2014 (Local Time) from SAME Reporting Station
Clear Clear  
Wind Chill: 77°   Ceiling: Unl
Heat Index: 79°   Visibility: 6mi
Dew Point: 57°   Wind: 15mph
Humidity: 50%   Direction: 140°SE
Pressure: 30.03"   Gusts: NA
Location:  34.63°S, 67.69°W
Report Text: SAME 241300Z 14013KT CAVOK 25/14 Q1017
Loading
Personal Weather Stations






























Interactive Weather Map
Tropical Storm Tracking
New forecast layout! Learn more

10-Day Weather Forecast

Advertisements
Track Severe Weather on mobile